sensor_id;sensor_type;location;lat;lon;timestamp;pressure;altitude;pressure_sealevel;temperature;humidity
31681;BME280;18281;51.364;9.566;2023-09-12T00:00:00;99661.16;;;16.75;100.00
31681;BME280;18281;51.364;9.566;2023-09-12T00:02:28;99661.72;;;16.79;100.00
31681;BME280;18281;51.364;9.566;2023-09-12T00:04:54;99662.00;;;16.75;100.00
31681;BME280;18281;51.364;9.566;2023-09-12T00:07:19;99663.16;;;16.92;100.00
31681;BME280;18281;51.364;9.566;2023-09-12T00:09:44;99663.56;;;16.88;100.00
31681;BME280;18281;51.364;9.566;2023-09-12T00:12:12;99657.38;;;16.77;100.00
31681;BME280;18281;51.364;9.566;2023-09-12T00:14:38;99657.88;;;16.62;100.00
31681;BME280;18281;51.364;9.566;2023-09-12T00:17:03;99664.34;;;16.69;100.00
31681;BME280;18281;51.364;9.566;2023-09-12T00:19:28;99657.06;;;16.61;100.00
31681;BME280;18281;51.364;9.566;2023-09-12T00:21:54;99661.69;;;16.69;100.00
31681;BME280;18281;51.364;9.566;2023-09-12T00:24:19;99667.03;;;16.79;100.00
31681;BME280;18281;51.364;9.566;2023-09-12T00:26:44;99661.59;;;16.80;100.00
31681;BME280;18281;51.364;9.566;2023-09-12T00:29:09;99654.34;;;16.82;100.00
31681;BME280;18281;51.364;9.566;2023-09-12T00:31:35;99654.41;;;16.61;100.00
31681;BME280;18281;51.364;9.566;2023-09-12T00:34:00;99649.56;;;16.66;100.00
31681;BME280;18281;51.364;9.566;2023-09-12T00:36:25;99649.50;;;16.56;100.00
31681;BME280;18281;51.364;9.566;2023-09-12T00:38:51;99644.31;;;16.55;100.00
31681;BME280;18281;51.364;9.566;2023-09-12T00:41:16;99647.56;;;16.37;100.00
31681;BME280;18281;51.364;9.566;2023-09-12T00:43:41;99644.78;;;16.39;100.00
31681;BME280;18281;51.364;9.566;2023-09-12T00:46:07;99638.19;;;16.54;100.00
31681;BME280;18281;51.364;9.566;2023-09-12T00:48:32;99642.75;;;16.52;100.00
31681;BME280;18281;51.364;9.566;2023-09-12T00:50:58;99640.38;;;16.49;100.00
31681;BME280;18281;51.364;9.566;2023-09-12T00:53:23;99635.06;;;16.49;100.00
31681;BME280;18281;51.364;9.566;2023-09-12T00:55:50;99628.44;;;16.55;100.00
31681;BME280;18281;51.364;9.566;2023-09-12T00:58:16;99637.00;;;16.47;100.00
31681;BME280;18281;51.364;9.566;2023-09-12T01:00:42;99631.28;;;16.42;100.00
31681;BME280;18281;51.364;9.566;2023-09-12T01:03:07;99636.19;;;16.47;100.00
31681;BME280;18281;51.364;9.566;2023-09-12T01:05:33;99629.25;;;16.24;100.00
31681;BME280;18281;51.364;9.566;2023-09-12T01:07:59;99626.38;;;16.37;100.00
31681;BME280;18281;51.364;9.566;2023-09-12T01:10:24;99636.22;;;16.04;100.00
31681;BME280;18281;51.364;9.566;2023-09-12T01:12:50;99635.84;;;16.09;100.00
31681;BME280;18281;51.364;9.566;2023-09-12T01:15:15;99635.47;;;15.92;100.00
31681;BME280;18281;51.364;9.566;2023-09-12T01:17:44;99642.88;;;15.99;100.00
31681;BME280;18281;51.364;9.566;2023-09-12T01:20:11;99643.38;;;16.14;100.00
31681;BME280;18281;51.364;9.566;2023-09-12T01:22:50;99637.84;;;16.17;100.00
31681;BME280;18281;51.364;9.566;2023-09-12T01:28:02;99641.47;;;16.16;100.00
31681;BME280;18281;51.364;9.566;2023-09-12T01:30:33;99641.59;;;16.14;100.00
31681;BME280;18281;51.364;9.566;2023-09-12T01:33:00;99633.66;;;16.14;100.00
31681;BME280;18281;51.364;9.566;2023-09-12T01:35:25;99634.56;;;16.03;100.00
31681;BME280;18281;51.364;9.566;2023-09-12T01:37:51;99634.56;;;16.03;100.00
31681;BME280;18281;51.364;9.566;2023-09-12T01:40:18;99633.84;;;16.01;100.00
31681;BME280;18281;51.364;9.566;2023-09-12T01:42:47;99640.41;;;16.07;100.00
31681;BME280;18281;51.364;9.566;2023-09-12T01:45:16;99637.34;;;16.02;100.00
31681;BME280;18281;51.364;9.566;2023-09-12T01:47:42;99635.25;;;15.84;100.00
31681;BME280;18281;51.364;9.566;2023-09-12T01:50:10;99635.97;;;15.86;100.00
31681;BME280;18281;51.364;9.566;2023-09-12T01:52:40;99636.06;;;15.64;100.00
31681;BME280;18281;51.364;9.566;2023-09-12T01:55:12;99635.19;;;15.74;100.00
31681;BME280;18281;51.364;9.566;2023-09-12T01:57:38;99635.53;;;15.81;100.00
31681;BME280;18281;51.364;9.566;2023-09-12T02:00:04;99634.44;;;15.84;100.00
31681;BME280;18281;51.364;9.566;2023-09-12T02:02:29;99631.00;;;15.72;100.00
31681;BME280;18281;51.364;9.566;2023-09-12T02:05:05;99643.00;;;15.76;100.00
31681;BME280;18281;51.364;9.566;2023-09-12T02:07:33;99638.44;;;15.78;100.00
31681;BME280;18281;51.364;9.566;2023-09-12T02:09:58;99639.66;;;15.63;100.00
31681;BME280;18281;51.364;9.566;2023-09-12T02:12:25;99644.22;;;15.72;100.00
31681;BME280;18281;51.364;9.566;2023-09-12T02:14:51;99639.91;;;15.71;100.00
31681;BME280;18281;51.364;9.566;2023-09-12T02:17:16;99627.03;;;15.66;100.00
31681;BME280;18281;51.364;9.566;2023-09-12T02:19:42;99629.63;;;15.56;100.00
31681;BME280;18281;51.364;9.566;2023-09-12T02:22:07;99627.97;;;15.44;100.00
31681;BME280;18281;51.364;9.566;2023-09-12T02:24:34;99630.50;;;15.67;100.00
31681;BME280;18281;51.364;9.566;2023-09-12T02:26:59;99633.72;;;15.49;100.00
31681;BME280;18281;51.364;9.566;2023-09-12T02:29:25;99624.88;;;15.60;100.00
31681;BME280;18281;51.364;9.566;2023-09-12T02:31:50;99623.59;;;15.54;100.00
31681;BME280;18281;51.364;9.566;2023-09-12T02:34:16;99626.66;;;15.38;100.00
31681;BME280;18281;51.364;9.566;2023-09-12T02:36:41;99634.06;;;15.23;100.00
31681;BME280;18281;51.364;9.566;2023-09-12T02:39:06;99646.31;;;15.13;100.00
31681;BME280;18281;51.364;9.566;2023-09-12T02:41:31;99633.03;;;15.36;100.00
31681;BME280;18281;51.364;9.566;2023-09-12T02:43:57;99630.41;;;15.36;100.00
31681;BME280;18281;51.364;9.566;2023-09-12T02:46:22;99632.81;;;15.39;100.00
31681;BME280;18281;51.364;9.566;2023-09-12T02:48:48;99637.13;;;15.40;100.00
31681;BME280;18281;51.364;9.566;2023-09-12T02:51:13;99643.63;;;15.36;100.00
31681;BME280;18281;51.364;9.566;2023-09-12T02:53:39;99643.97;;;15.42;100.00
31681;BME280;18281;51.364;9.566;2023-09-12T02:56:04;99645.38;;;15.25;100.00
31681;BME280;18281;51.364;9.566;2023-09-12T02:58:29;99639.81;;;15.29;100.00
31681;BME280;18281;51.364;9.566;2023-09-12T03:00:55;99638.19;;;15.16;100.00
31681;BME280;18281;51.364;9.566;2023-09-12T03:03:20;99633.94;;;15.25;100.00
31681;BME280;18281;51.364;9.566;2023-09-12T03:05:45;99630.03;;;15.08;100.00
31681;BME280;18281;51.364;9.566;2023-09-12T03:08:11;99643.59;;;15.15;100.00
31681;BME280;18281;51.364;9.566;2023-09-12T03:10:36;99644.88;;;15.20;100.00
31681;BME280;18281;51.364;9.566;2023-09-12T03:13:02;99639.72;;;15.19;100.00
31681;BME280;18281;51.364;9.566;2023-09-12T03:15:27;99645.59;;;15.22;100.00
31681;BME280;18281;51.364;9.566;2023-09-12T03:17:53;99649.50;;;14.96;100.00
31681;BME280;18281;51.364;9.566;2023-09-12T03:20:18;99645.06;;;14.85;100.00
31681;BME280;18281;51.364;9.566;2023-09-12T03:22:44;99649.53;;;14.84;100.00
31681;BME280;18281;51.364;9.566;2023-09-12T03:25:10;99640.59;;;14.97;100.00
31681;BME280;18281;51.364;9.566;2023-09-12T03:27:35;99640.59;;;14.97;100.00
31681;BME280;18281;51.364;9.566;2023-09-12T03:30:01;99638.44;;;15.02;100.00
31681;BME280;18281;51.364;9.566;2023-09-12T03:32:27;99645.53;;;14.79;100.00
31681;BME280;18281;51.364;9.566;2023-09-12T03:34:53;99652.03;;;14.74;100.00
31681;BME280;18281;51.364;9.566;2023-09-12T03:37:18;99641.72;;;14.83;100.00
31681;BME280;18281;51.364;9.566;2023-09-12T03:39:44;99657.56;;;14.94;100.00
31681;BME280;18281;51.364;9.566;2023-09-12T03:42:09;99659.47;;;14.69;100.00
31681;BME280;18281;51.364;9.566;2023-09-12T03:44:36;99653.34;;;14.69;100.00
31681;BME280;18281;51.364;9.566;2023-09-12T03:47:01;99651.06;;;14.64;100.00
31681;BME280;18281;51.364;9.566;2023-09-12T03:49:27;99653.84;;;14.85;100.00
31681;BME280;18281;51.364;9.566;2023-09-12T03:51:53;99659.00;;;14.87;100.00
31681;BME280;18281;51.364;9.566;2023-09-12T03:54:18;99653.13;;;14.95;100.00
31681;BME280;18281;51.364;9.566;2023-09-12T03:56:44;99648.78;;;14.82;100.00
31681;BME280;18281;51.364;9.566;2023-09-12T03:59:09;99663.22;;;14.89;100.00
31681;BME280;18281;51.364;9.566;2023-09-12T04:01:34;99671.16;;;14.89;100.00
31681;BME280;18281;51.364;9.566;2023-09-12T04:03:59;99660.34;;;14.81;100.00
31681;BME280;18281;51.364;9.566;2023-09-12T04:06:25;99673.75;;;14.67;100.00
31681;BME280;18281;51.364;9.566;2023-09-12T04:08:50;99673.16;;;14.63;100.00
31681;BME280;18281;51.364;9.566;2023-09-12T04:11:15;99673.41;;;14.60;100.00
31681;BME280;18281;51.364;9.566;2023-09-12T04:13:40;99667.97;;;14.73;100.00
31681;BME280;18281;51.364;9.566;2023-09-12T04:16:06;99671.13;;;14.67;100.00
31681;BME280;18281;51.364;9.566;2023-09-12T04:18:31;99671.84;;;14.57;100.00
31681;BME280;18281;51.364;9.566;2023-09-12T04:20:56;99681.69;;;14.67;100.00
31681;BME280;18281;51.364;9.566;2023-09-12T04:23:24;99685.53;;;14.63;100.00
31681;BME280;18281;51.364;9.566;2023-09-12T04:25:49;99690.44;;;14.56;100.00
31681;BME280;18281;51.364;9.566;2023-09-12T04:28:15;99686.75;;;14.58;100.00
31681;BME280;18281;51.364;9.566;2023-09-12T04:30:46;99681.66;;;14.55;100.00
31681;BME280;18281;51.364;9.566;2023-09-12T04:33:14;99683.00;;;14.50;100.00
31681;BME280;18281;51.364;9.566;2023-09-12T04:35:40;99685.03;;;14.46;100.00
31681;BME280;18281;51.364;9.566;2023-09-12T04:38:09;99677.34;;;14.43;100.00
31681;BME280;18281;51.364;9.566;2023-09-12T04:40:35;99675.31;;;14.47;100.00
31681;BME280;18281;51.364;9.566;2023-09-12T04:43:00;99677.47;;;14.41;100.00
31681;BME280;18281;51.364;9.566;2023-09-12T04:45:26;99681.91;;;14.41;100.00
31681;BME280;18281;51.364;9.566;2023-09-12T04:47:51;99680.94;;;14.31;100.00
31681;BME280;18281;51.364;9.566;2023-09-12T04:50:17;99676.16;;;14.47;100.00
31681;BME280;18281;51.364;9.566;2023-09-12T04:52:42;99672.09;;;14.54;100.00
31681;BME280;18281;51.364;9.566;2023-09-12T04:55:07;99668.84;;;14.85;100.00
31681;BME280;18281;51.364;9.566;2023-09-12T04:57:33;99679.31;;;14.98;100.00
31681;BME280;18281;51.364;9.566;2023-09-12T04:59:58;99672.44;;;14.95;100.00
31681;BME280;18281;51.364;9.566;2023-09-12T05:02:24;99671.06;;;15.23;100.00
31681;BME280;18281;51.364;9.566;2023-09-12T05:04:49;99670.28;;;15.44;100.00
31681;BME280;18281;51.364;9.566;2023-09-12T05:07:15;99681.88;;;15.64;100.00
31681;BME280;18281;51.364;9.566;2023-09-12T05:09:40;99693.31;;;15.65;100.00
31681;BME280;18281;51.364;9.566;2023-09-12T05:12:05;99691.28;;;15.57;100.00
31681;BME280;18281;51.364;9.566;2023-09-12T05:14:31;99697.41;;;15.57;100.00
31681;BME280;18281;51.364;9.566;2023-09-12T05:16:56;99705.69;;;15.75;100.00
31681;BME280;18281;51.364;9.566;2023-09-12T05:19:21;99704.34;;;15.81;100.00
31681;BME280;18281;51.364;9.566;2023-09-12T05:21:46;99712.03;;;15.84;100.00
31681;BME280;18281;51.364;9.566;2023-09-12T05:24:12;99711.66;;;15.89;100.00
31681;BME280;18281;51.364;9.566;2023-09-12T05:26:37;99714.44;;;15.87;100.00
31681;BME280;18281;51.364;9.566;2023-09-12T05:29:02;99720.03;;;15.73;100.00
31681;BME280;18281;51.364;9.566;2023-09-12T05:31:27;99710.41;;;15.72;100.00
31681;BME280;18281;51.364;9.566;2023-09-12T05:33:53;99701.06;;;15.56;100.00
31681;BME280;18281;51.364;9.566;2023-09-12T05:36:18;99703.38;;;15.38;100.00
31681;BME280;18281;51.364;9.566;2023-09-12T05:38:44;99697.31;;;15.15;100.00
31681;BME280;18281;51.364;9.566;2023-09-12T05:41:09;99698.28;;;15.03;100.00
31681;BME280;18281;51.364;9.566;2023-09-12T05:43:34;99698.28;;;14.91;100.00
31681;BME280;18281;51.364;9.566;2023-09-12T05:45:59;99707.50;;;14.52;100.00
31681;BME280;18281;51.364;9.566;2023-09-12T05:48:25;99707.69;;;14.26;100.00
31681;BME280;18281;51.364;9.566;2023-09-12T05:50:50;99710.38;;;14.60;100.00
31681;BME280;18281;51.364;9.566;2023-09-12T05:53:15;99724.59;;;14.23;100.00
31681;BME280;18281;51.364;9.566;2023-09-12T05:55:41;99736.19;;;14.45;100.00
31681;BME280;18281;51.364;9.566;2023-09-12T05:58:06;99733.72;;;15.12;100.00
31681;BME280;18281;51.364;9.566;2023-09-12T06:00:32;99740.25;;;15.51;100.00
31681;BME280;18281;51.364;9.566;2023-09-12T06:02:57;99741.69;;;15.55;100.00
31681;BME280;18281;51.364;9.566;2023-09-12T06:05:22;99744.31;;;15.78;100.00
31681;BME280;18281;51.364;9.566;2023-09-12T06:07:48;99738.72;;;15.92;100.00
31681;BME280;18281;51.364;9.566;2023-09-12T06:10:13;99742.69;;;15.87;100.00
31681;BME280;18281;51.364;9.566;2023-09-12T06:12:38;99742.41;;;15.69;100.00
31681;BME280;18281;51.364;9.566;2023-09-12T06:15:04;99740.66;;;15.35;100.00
31681;BME280;18281;51.364;9.566;2023-09-12T06:17:29;99748.84;;;15.21;100.00
31681;BME280;18281;51.364;9.566;2023-09-12T06:19:54;99749.13;;;15.73;100.00
31681;BME280;18281;51.364;9.566;2023-09-12T06:22:20;99744.78;;;15.83;100.00
31681;BME280;18281;51.364;9.566;2023-09-12T06:24:47;99745.25;;;15.88;100.00
31681;BME280;18281;51.364;9.566;2023-09-12T06:27:13;99742.78;;;15.97;100.00
31681;BME280;18281;51.364;9.566;2023-09-12T06:29:43;99738.88;;;15.80;100.00
31681;BME280;18281;51.364;9.566;2023-09-12T06:32:08;99735.75;;;15.86;100.00
31681;BME280;18281;51.364;9.566;2023-09-12T06:34:34;99727.38;;;16.02;100.00
31681;BME280;18281;51.364;9.566;2023-09-12T06:36:59;99717.22;;;16.07;100.00
31681;BME280;18281;51.364;9.566;2023-09-12T06:39:24;99705.28;;;16.13;100.00
31681;BME280;18281;51.364;9.566;2023-09-12T06:41:49;99700.13;;;16.11;100.00
31681;BME280;18281;51.364;9.566;2023-09-12T06:44:15;99680.09;;;16.18;100.00
31681;BME280;18281;51.364;9.566;2023-09-12T06:46:40;99656.31;;;16.07;100.00
31681;BME280;18281;51.364;9.566;2023-09-12T06:49:05;99660.28;;;15.15;100.00
31681;BME280;18281;51.364;9.566;2023-09-12T06:51:31;99660.38;;;15.25;100.00
31681;BME280;18281;51.364;9.566;2023-09-12T06:53:56;99667.34;;;15.70;100.00
31681;BME280;18281;51.364;9.566;2023-09-12T06:56:21;99676.84;;;15.93;100.00
31681;BME280;18281;51.364;9.566;2023-09-12T06:58:47;99667.16;;;16.04;100.00
31681;BME280;18281;51.364;9.566;2023-09-12T07:01:12;99674.34;;;16.13;100.00
31681;BME280;18281;51.364;9.566;2023-09-12T07:03:38;99675.50;;;16.20;100.00
31681;BME280;18281;51.364;9.566;2023-09-12T07:06:03;99696.16;;;16.26;100.00
31681;BME280;18281;51.364;9.566;2023-09-12T07:08:29;99694.75;;;16.22;100.00
31681;BME280;18281;51.364;9.566;2023-09-12T07:10:55;99697.03;;;16.06;100.00
31681;BME280;18281;51.364;9.566;2023-09-12T07:13:21;99696.56;;;16.01;100.00
31681;BME280;18281;51.364;9.566;2023-09-12T07:15:47;99698.28;;;15.58;100.00
31681;BME280;18281;51.364;9.566;2023-09-12T07:18:12;99687.63;;;15.48;100.00
31681;BME280;18281;51.364;9.566;2023-09-12T07:20:37;99695.25;;;15.74;100.00
31681;BME280;18281;51.364;9.566;2023-09-12T07:23:03;99694.22;;;15.86;100.00
31681;BME280;18281;51.364;9.566;2023-09-12T07:25:28;99700.63;;;16.05;100.00
31681;BME280;18281;51.364;9.566;2023-09-12T07:27:53;99703.28;;;16.05;100.00
31681;BME280;18281;51.364;9.566;2023-09-12T07:30:19;99699.13;;;16.12;100.00
31681;BME280;18281;51.364;9.566;2023-09-12T07:32:44;99697.84;;;16.27;100.00
31681;BME280;18281;51.364;9.566;2023-09-12T07:35:09;99691.50;;;16.40;100.00
31681;BME280;18281;51.364;9.566;2023-09-12T07:37:35;99695.06;;;16.50;100.00
31681;BME280;18281;51.364;9.566;2023-09-12T07:40:00;99703.53;;;16.23;100.00
31681;BME280;18281;51.364;9.566;2023-09-12T07:42:26;99698.38;;;16.21;100.00
31681;BME280;18281;51.364;9.566;2023-09-12T07:44:51;99696.16;;;16.26;100.00
31681;BME280;18281;51.364;9.566;2023-09-12T07:47:16;99691.38;;;16.41;100.00
31681;BME280;18281;51.364;9.566;2023-09-12T07:49:41;99693.66;;;16.46;100.00
31681;BME280;18281;51.364;9.566;2023-09-12T07:52:07;99692.88;;;16.55;100.00
31681;BME280;18281;51.364;9.566;2023-09-12T07:54:32;99693.81;;;16.75;100.00
31681;BME280;18281;51.364;9.566;2023-09-12T07:56:57;99686.53;;;16.77;100.00
31681;BME280;18281;51.364;9.566;2023-09-12T07:59:23;99681.94;;;17.20;100.00
31681;BME280;18281;51.364;9.566;2023-09-12T08:01:48;99662.38;;;17.12;100.00
31681;BME280;18281;51.364;9.566;2023-09-12T08:04:13;99666.28;;;17.17;100.00
31681;BME280;18281;51.364;9.566;2023-09-12T08:06:39;99664.91;;;17.23;100.00
31681;BME280;18281;51.364;9.566;2023-09-12T08:09:05;99650.44;;;17.47;100.00
31681;BME280;18281;51.364;9.566;2023-09-12T08:11:30;99649.72;;;17.93;100.00
31681;BME280;18281;51.364;9.566;2023-09-12T08:13:55;99654.03;;;18.14;100.00
31681;BME280;18281;51.364;9.566;2023-09-12T08:16:21;99647.00;;;18.33;100.00
31681;BME280;18281;51.364;9.566;2023-09-12T08:18:46;99651.53;;;18.50;100.00
31681;BME280;18281;51.364;9.566;2023-09-12T08:21:11;99648.47;;;18.45;100.00
31681;BME280;18281;51.364;9.566;2023-09-12T08:23:36;99654.91;;;18.52;100.00
31681;BME280;18281;51.364;9.566;2023-09-12T08:26:02;99658.94;;;18.56;100.00
31681;BME280;18281;51.364;9.566;2023-09-12T08:28:27;99665.69;;;18.79;100.00
31681;BME280;18281;51.364;9.566;2023-09-12T08:30:52;99663.56;;;18.54;100.00
31681;BME280;18281;51.364;9.566;2023-09-12T08:33:18;99663.88;;;18.79;100.00
31681;BME280;18281;51.364;9.566;2023-09-12T08:35:43;99660.16;;;19.00;100.00
31681;BME280;18281;51.364;9.566;2023-09-12T08:38:08;99663.31;;;19.13;100.00
31681;BME280;18281;51.364;9.566;2023-09-12T08:40:35;99661.53;;;19.04;100.00
31681;BME280;18281;51.364;9.566;2023-09-12T08:43:01;99675.41;;;19.25;100.00
31681;BME280;18281;51.364;9.566;2023-09-12T08:45:28;99682.28;;;19.46;100.00
31681;BME280;18281;51.364;9.566;2023-09-12T08:47:54;99686.78;;;19.64;100.00
31681;BME280;18281;51.364;9.566;2023-09-12T08:50:23;99688.81;;;19.52;100.00
31681;BME280;18281;51.364;9.566;2023-09-12T08:52:59;99691.13;;;19.65;100.00
31681;BME280;18281;51.364;9.566;2023-09-12T08:55:25;99688.34;;;19.56;100.00
31681;BME280;18281;51.364;9.566;2023-09-12T08:57:51;99694.63;;;19.65;100.00
31681;BME280;18281;51.364;9.566;2023-09-12T09:00:17;99689.97;;;19.67;100.00
31681;BME280;18281;51.364;9.566;2023-09-12T09:02:43;99697.50;;;19.90;100.00
31681;BME280;18281;51.364;9.566;2023-09-12T09:05:10;99696.06;;;19.96;100.00
31681;BME280;18281;51.364;9.566;2023-09-12T09:07:36;99695.31;;;19.85;100.00
31681;BME280;18281;51.364;9.566;2023-09-12T09:10:02;99690.13;;;19.84;100.00
31681;BME280;18281;51.364;9.566;2023-09-12T09:12:30;99691.63;;;20.04;100.00
31681;BME280;18281;51.364;9.566;2023-09-12T09:14:55;99686.44;;;20.03;100.00
31681;BME280;18281;51.364;9.566;2023-09-12T09:17:20;99704.34;;;19.92;100.00
31681;BME280;18281;51.364;9.566;2023-09-12T09:19:46;99690.75;;;19.96;100.00
31681;BME280;18281;51.364;9.566;2023-09-12T09:22:12;99702.59;;;19.83;100.00
31681;BME280;18281;51.364;9.566;2023-09-12T09:24:38;99690.38;;;20.17;100.00
31681;BME280;18281;51.364;9.566;2023-09-12T09:27:03;99688.06;;;19.96;100.00
31681;BME280;18281;51.364;9.566;2023-09-12T09:29:28;99694.81;;;20.08;100.00
31681;BME280;18281;51.364;9.566;2023-09-12T09:31:57;99689.16;;;20.11;100.00
31681;BME280;18281;51.364;9.566;2023-09-12T09:34:23;99691.47;;;20.06;100.00
31681;BME280;18281;51.364;9.566;2023-09-12T09:36:53;99691.88;;;19.93;100.00
31681;BME280;18281;51.364;9.566;2023-09-12T09:39:20;99695.59;;;20.00;100.00
31681;BME280;18281;51.364;9.566;2023-09-12T09:41:49;99700.25;;;19.80;100.00
31681;BME280;18281;51.364;9.566;2023-09-12T09:44:15;99715.06;;;20.01;100.00
31681;BME280;18281;51.364;9.566;2023-09-12T09:46:44;99710.31;;;20.13;100.00
31681;BME280;18281;51.364;9.566;2023-09-12T09:49:10;99710.25;;;20.22;100.00
31681;BME280;18281;51.364;9.566;2023-09-12T09:51:42;99708.31;;;20.33;100.00
31681;BME280;18281;51.364;9.566;2023-09-12T09:54:13;99717.22;;;20.41;100.00
31681;BME280;18281;51.364;9.566;2023-09-12T09:56:49;99717.41;;;20.40;100.00
31681;BME280;18281;51.364;9.566;2023-09-12T09:59:18;99709.66;;;20.55;100.00
31681;BME280;18281;51.364;9.566;2023-09-12T10:01:44;99716.88;;;20.63;100.00
31681;BME280;18281;51.364;9.566;2023-09-12T10:04:10;99713.97;;;20.90;100.00
31681;BME280;18281;51.364;9.566;2023-09-12T10:06:36;99708.47;;;20.92;100.00
31681;BME280;18281;51.364;9.566;2023-09-12T10:09:02;99703.63;;;20.87;100.00
31681;BME280;18281;51.364;9.566;2023-09-12T10:11:31;99701.13;;;21.20;100.00
31681;BME280;18281;51.364;9.566;2023-09-12T10:13:59;99696.78;;;21.19;100.00
31681;BME280;18281;51.364;9.566;2023-09-12T10:16:25;99696.69;;;21.46;100.00
31681;BME280;18281;51.364;9.566;2023-09-12T10:18:58;99696.09;;;21.25;100.00
31681;BME280;18281;51.364;9.566;2023-09-12T10:21:28;99696.06;;;21.76;100.00
31681;BME280;18281;51.364;9.566;2023-09-12T10:23:54;99689.56;;;21.87;100.00
31681;BME280;18281;51.364;9.566;2023-09-12T10:26:20;99688.97;;;21.51;100.00
31681;BME280;18281;51.364;9.566;2023-09-12T10:28:46;99684.16;;;21.54;100.00
31681;BME280;18281;51.364;9.566;2023-09-12T10:31:12;99688.94;;;21.26;100.00
31681;BME280;18281;51.364;9.566;2023-09-12T10:33:38;99683.97;;;21.48;100.00
31681;BME280;18281;51.364;9.566;2023-09-12T10:36:03;99683.81;;;21.57;99.16
31681;BME280;18281;51.364;9.566;2023-09-12T10:38:30;99683.34;;;21.54;99.92
31681;BME280;18281;51.364;9.566;2023-09-12T10:40:57;99673.97;;;21.50;100.00
31681;BME280;18281;51.364;9.566;2023-09-12T10:43:24;99680.47;;;21.47;99.71
31681;BME280;18281;51.364;9.566;2023-09-12T10:45:50;99682.16;;;21.56;98.53
31681;BME280;18281;51.364;9.566;2023-09-12T10:48:16;99681.19;;;21.74;98.06
31681;BME280;18281;51.364;9.566;2023-09-12T10:50:42;99674.50;;;22.03;97.76
31681;BME280;18281;51.364;9.566;2023-09-12T10:53:12;99676.34;;;21.77;96.41
31681;BME280;18281;51.364;9.566;2023-09-12T10:55:37;99674.50;;;21.95;96.65
31681;BME280;18281;51.364;9.566;2023-09-12T10:58:03;99684.81;;;22.39;95.79
31681;BME280;18281;51.364;9.566;2023-09-12T11:00:29;99675.59;;;22.50;96.45
31681;BME280;18281;51.364;9.566;2023-09-12T11:02:57;99676.81;;;22.39;94.91
31681;BME280;18281;51.364;9.566;2023-09-12T11:07:58;99682.66;;;22.34;94.24
31681;BME280;18281;51.364;9.566;2023-09-12T11:10:23;99674.00;;;22.80;94.94
31681;BME280;18281;51.364;9.566;2023-09-12T11:12:53;99680.59;;;22.61;94.39
31681;BME280;18281;51.364;9.566;2023-09-12T11:15:19;99685.16;;;22.27;94.34
31681;BME280;18281;51.364;9.566;2023-09-12T11:17:45;99685.50;;;22.33;95.05
31681;BME280;18281;51.364;9.566;2023-09-12T11:20:11;99678.03;;;22.76;94.52
31681;BME280;18281;51.364;9.566;2023-09-12T11:22:46;99680.09;;;22.57;94.99
31681;BME280;18281;51.364;9.566;2023-09-12T11:30:09;99669.28;;;22.90;95.45
31681;BME280;18281;51.364;9.566;2023-09-12T11:32:35;99671.63;;;22.85;94.51
31681;BME280;18281;51.364;9.566;2023-09-12T11:35:07;99673.09;;;22.48;94.71
31681;BME280;18281;51.364;9.566;2023-09-12T11:37:33;99664.22;;;22.56;94.98
31681;BME280;18281;51.364;9.566;2023-09-12T11:39:58;99662.19;;;22.98;94.26
31681;BME280;18281;51.364;9.566;2023-09-12T11:42:24;99660.38;;;23.30;94.18
31681;BME280;18281;51.364;9.566;2023-09-12T11:44:52;99652.72;;;23.26;93.39
31681;BME280;18281;51.364;9.566;2023-09-12T11:47:17;99651.97;;;23.33;92.22
31681;BME280;18281;51.364;9.566;2023-09-12T11:49:43;99652.69;;;23.50;92.92
31681;BME280;18281;51.364;9.566;2023-09-12T11:52:12;99650.84;;;23.27;91.61
31681;BME280;18281;51.364;9.566;2023-09-12T11:54:38;99643.38;;;23.69;91.30
31681;BME280;18281;51.364;9.566;2023-09-12T11:57:04;99636.03;;;23.39;90.41
31681;BME280;18281;51.364;9.566;2023-09-12T11:59:29;99640.19;;;23.19;90.52
31681;BME280;18281;51.364;9.566;2023-09-12T12:01:55;99640.19;;;23.19;92.17
31681;BME280;18281;51.364;9.566;2023-09-12T12:04:21;99634.03;;;23.10;91.79
31681;BME280;18281;51.364;9.566;2023-09-12T12:06:47;99629.41;;;23.04;91.45
31681;BME280;18281;51.364;9.566;2023-09-12T12:09:12;99637.34;;;23.20;91.66
31681;BME280;18281;51.364;9.566;2023-09-12T12:11:39;99629.13;;;23.22;90.98
31681;BME280;18281;51.364;9.566;2023-09-12T12:14:10;99642.88;;;23.19;92.27
31681;BME280;18281;51.364;9.566;2023-09-12T12:16:36;99638.28;;;23.27;92.06
31681;BME280;18281;51.364;9.566;2023-09-12T12:19:01;99636.34;;;23.21;91.33
31681;BME280;18281;51.364;9.566;2023-09-12T12:21:26;99631.16;;;23.20;91.15
31681;BME280;18281;51.364;9.566;2023-09-12T12:24:00;99619.91;;;23.71;90.60
31681;BME280;18281;51.364;9.566;2023-09-12T12:26:25;99610.56;;;23.67;88.74
31681;BME280;18281;51.364;9.566;2023-09-12T12:28:51;99615.69;;;24.06;89.61
31681;BME280;18281;51.364;9.566;2023-09-12T12:31:17;99614.09;;;23.82;88.85
31681;BME280;18281;51.364;9.566;2023-09-12T12:33:47;99607.53;;;23.70;89.64
31681;BME280;18281;51.364;9.566;2023-09-12T12:36:12;99610.25;;;23.38;89.41
31681;BME280;18281;51.364;9.566;2023-09-12T12:38:38;99608.97;;;23.49;88.85
31681;BME280;18281;51.364;9.566;2023-09-12T12:41:04;99604.00;;;23.69;89.17
31681;BME280;18281;51.364;9.566;2023-09-12T12:43:29;99606.88;;;23.21;90.98
31681;BME280;18281;51.364;9.566;2023-09-12T12:45:55;99611.41;;;23.44;91.69
31681;BME280;18281;51.364;9.566;2023-09-12T12:48:30;99601.47;;;23.06;92.07
31681;BME280;18281;51.364;9.566;2023-09-12T12:50:56;99601.91;;;23.56;92.47
31681;BME280;18281;51.364;9.566;2023-09-12T12:53:40;99598.78;;;23.30;91.99
31681;BME280;18281;51.364;9.566;2023-09-12T12:56:05;99592.81;;;23.66;91.94